sensor_id;sensor_type;location;lat;lon;timestamp;temperature;humidity
7572;DHT22;3827;49.928;8.548;2022-10-18T00:00:02;16.60;99.90
7572;DHT22;3827;49.928;8.548;2022-10-18T00:02:29;16.60;99.90
7572;DHT22;3827;49.928;8.548;2022-10-18T00:04:56;16.60;99.90
7572;DHT22;3827;49.928;8.548;2022-10-18T00:07:23;16.60;99.90
7572;DHT22;3827;49.928;8.548;2022-10-18T00:09:51;16.60;99.90
7572;DHT22;3827;49.928;8.548;2022-10-18T00:12:18;16.70;99.90
7572;DHT22;3827;49.928;8.548;2022-10-18T00:14:47;16.70;99.90
7572;DHT22;3827;49.928;8.548;2022-10-18T00:17:15;16.60;99.90
7572;DHT22;3827;49.928;8.548;2022-10-18T00:19:41;16.60;99.90
7572;DHT22;3827;49.928;8.548;2022-10-18T00:22:08;16.60;99.90
7572;DHT22;3827;49.928;8.548;2022-10-18T00:24:35;16.60;99.90
7572;DHT22;3827;49.928;8.548;2022-10-18T00:27:03;16.50;99.90
7572;DHT22;3827;49.928;8.548;2022-10-18T00:29:30;16.50;99.90
7572;DHT22;3827;49.928;8.548;2022-10-18T00:31:57;16.50;99.90
7572;DHT22;3827;49.928;8.548;2022-10-18T00:34:23;16.50;99.90
7572;DHT22;3827;49.928;8.548;2022-10-18T00:36:50;16.50;99.90
7572;DHT22;3827;49.928;8.548;2022-10-18T00:39:19;16.50;99.90
7572;DHT22;3827;49.928;8.548;2022-10-18T00:41:47;16.50;99.90
7572;DHT22;3827;49.928;8.548;2022-10-18T00:47:19;16.50;99.90
7572;DHT22;3827;49.928;8.548;2022-10-18T00:49:52;16.40;99.90
7572;DHT22;3827;49.928;8.548;2022-10-18T00:52:25;16.40;99.90
7572;DHT22;3827;49.928;8.548;2022-10-18T00:54:54;16.40;99.90
7572;DHT22;3827;49.928;8.548;2022-10-18T00:57:22;16.40;99.90
7572;DHT22;3827;49.928;8.548;2022-10-18T00:59:50;16.40;99.90
7572;DHT22;3827;49.928;8.548;2022-10-18T01:02:18;16.40;99.90
7572;DHT22;3827;49.928;8.548;2022-10-18T01:04:46;16.30;99.90
7572;DHT22;3827;49.928;8.548;2022-10-18T01:07:29;16.30;99.90
7572;DHT22;3827;49.928;8.548;2022-10-18T01:10:17;16.30;99.90
7572;DHT22;3827;49.928;8.548;2022-10-18T01:12:55;16.30;99.90
7572;DHT22;3827;49.928;8.548;2022-10-18T01:15:27;16.30;99.90
7572;DHT22;3827;49.928;8.548;2022-10-18T01:18:08;16.30;99.90
7572;DHT22;3827;49.928;8.548;2022-10-18T01:21:12;16.50;99.90
7572;DHT22;3827;49.928;8.548;2022-10-18T01:24:12;16.30;99.90
7572;DHT22;3827;49.928;8.548;2022-10-18T01:26:58;16.40;99.90
7572;DHT22;3827;49.928;8.548;2022-10-18T01:29:46;16.40;99.90
7572;DHT22;3827;49.928;8.548;2022-10-18T01:32:19;16.40;99.90
7572;DHT22;3827;49.928;8.548;2022-10-18T01:34:49;16.40;99.90
7572;DHT22;3827;49.928;8.548;2022-10-18T01:37:19;16.40;99.90
7572;DHT22;3827;49.928;8.548;2022-10-18T01:39:47;16.40;99.90
7572;DHT22;3827;49.928;8.548;2022-10-18T01:42:18;16.40;99.90
7572;DHT22;3827;49.928;8.548;2022-10-18T01:44:46;16.40;99.90
7572;DHT22;3827;49.928;8.548;2022-10-18T01:47:17;16.40;99.90
7572;DHT22;3827;49.928;8.548;2022-10-18T01:49:45;16.40;99.90
7572;DHT22;3827;49.928;8.548;2022-10-18T01:52:12;16.40;99.90
7572;DHT22;3827;49.928;8.548;2022-10-18T01:54:43;16.40;99.90
7572;DHT22;3827;49.928;8.548;2022-10-18T01:57:16;16.40;99.90
7572;DHT22;3827;49.928;8.548;2022-10-18T01:59:53;16.30;99.90
7572;DHT22;3827;49.928;8.548;2022-10-18T02:02:36;16.30;99.90
7572;DHT22;3827;49.928;8.548;2022-10-18T02:05:13;16.30;99.90
7572;DHT22;3827;49.928;8.548;2022-10-18T02:07:45;16.40;99.90
7572;DHT22;3827;49.928;8.548;2022-10-18T02:10:17;16.40;99.90
7572;DHT22;3827;49.928;8.548;2022-10-18T02:12:47;16.40;99.90
7572;DHT22;3827;49.928;8.548;2022-10-18T02:15:18;16.40;99.90
7572;DHT22;3827;49.928;8.548;2022-10-18T02:17:47;16.40;99.90
7572;DHT22;3827;49.928;8.548;2022-10-18T02:20:19;16.30;99.90
7572;DHT22;3827;49.928;8.548;2022-10-18T02:22:49;16.20;99.90
7572;DHT22;3827;49.928;8.548;2022-10-18T02:25:18;16.20;99.90
7572;DHT22;3827;49.928;8.548;2022-10-18T02:27:46;16.10;99.90
7572;DHT22;3827;49.928;8.548;2022-10-18T02:30:13;16.00;99.90
7572;DHT22;3827;49.928;8.548;2022-10-18T02:32:43;15.90;99.90
7572;DHT22;3827;49.928;8.548;2022-10-18T02:35:19;15.80;99.90
7572;DHT22;3827;49.928;8.548;2022-10-18T02:37:48;16.00;99.90
7572;DHT22;3827;49.928;8.548;2022-10-18T02:40:16;15.60;99.90
7572;DHT22;3827;49.928;8.548;2022-10-18T02:42:46;15.60;99.90
7572;DHT22;3827;49.928;8.548;2022-10-18T02:45:14;15.60;99.90
7572;DHT22;3827;49.928;8.548;2022-10-18T02:47:41;15.50;99.90
7572;DHT22;3827;49.928;8.548;2022-10-18T02:50:08;15.50;99.90
7572;DHT22;3827;49.928;8.548;2022-10-18T02:52:37;15.60;99.90
7572;DHT22;3827;49.928;8.548;2022-10-18T02:55:05;15.60;99.90
7572;DHT22;3827;49.928;8.548;2022-10-18T02:57:32;15.60;99.90
7572;DHT22;3827;49.928;8.548;2022-10-18T02:59:59;15.70;99.90
7572;DHT22;3827;49.928;8.548;2022-10-18T03:02:25;15.60;99.90
7572;DHT22;3827;49.928;8.548;2022-10-18T03:04:52;15.70;99.90
7572;DHT22;3827;49.928;8.548;2022-10-18T03:07:19;15.70;99.90
7572;DHT22;3827;49.928;8.548;2022-10-18T03:09:47;15.70;99.90
7572;DHT22;3827;49.928;8.548;2022-10-18T03:12:14;15.70;99.90
7572;DHT22;3827;49.928;8.548;2022-10-18T03:14:41;15.70;99.90
7572;DHT22;3827;49.928;8.548;2022-10-18T03:17:08;15.70;99.90
7572;DHT22;3827;49.928;8.548;2022-10-18T03:19:35;15.70;99.90
7572;DHT22;3827;49.928;8.548;2022-10-18T03:22:03;15.90;99.90
7572;DHT22;3827;49.928;8.548;2022-10-18T03:24:30;15.80;99.90
7572;DHT22;3827;49.928;8.548;2022-10-18T03:26:58;15.90;99.90
7572;DHT22;3827;49.928;8.548;2022-10-18T03:29:25;16.00;99.90
7572;DHT22;3827;49.928;8.548;2022-10-18T03:31:51;16.10;99.90
7572;DHT22;3827;49.928;8.548;2022-10-18T03:34:18;16.10;99.90
7572;DHT22;3827;49.928;8.548;2022-10-18T03:36:45;16.10;99.90
7572;DHT22;3827;49.928;8.548;2022-10-18T03:39:12;16.10;99.90
7572;DHT22;3827;49.928;8.548;2022-10-18T03:41:39;16.10;99.90
7572;DHT22;3827;49.928;8.548;2022-10-18T03:44:07;16.10;99.90
7572;DHT22;3827;49.928;8.548;2022-10-18T03:46:34;16.10;99.90
7572;DHT22;3827;49.928;8.548;2022-10-18T03:49:00;16.10;99.90
7572;DHT22;3827;49.928;8.548;2022-10-18T03:51:27;16.10;99.90
7572;DHT22;3827;49.928;8.548;2022-10-18T03:53:54;16.10;99.90
7572;DHT22;3827;49.928;8.548;2022-10-18T03:56:21;16.10;99.90
7572;DHT22;3827;49.928;8.548;2022-10-18T03:58:48;16.00;99.90
7572;DHT22;3827;49.928;8.548;2022-10-18T04:01:16;16.00;99.90
7572;DHT22;3827;49.928;8.548;2022-10-18T04:03:42;16.00;99.90
7572;DHT22;3827;49.928;8.548;2022-10-18T04:06:09;16.00;99.90
7572;DHT22;3827;49.928;8.548;2022-10-18T04:08:36;16.00;99.90
7572;DHT22;3827;49.928;8.548;2022-10-18T04:11:05;16.00;99.90
7572;DHT22;3827;49.928;8.548;2022-10-18T04:13:33;15.90;99.90
7572;DHT22;3827;49.928;8.548;2022-10-18T04:16:00;15.90;99.90
7572;DHT22;3827;49.928;8.548;2022-10-18T04:18:28;15.90;99.90
7572;DHT22;3827;49.928;8.548;2022-10-18T04:20:55;15.90;99.90
7572;DHT22;3827;49.928;8.548;2022-10-18T04:23:22;15.90;99.90
7572;DHT22;3827;49.928;8.548;2022-10-18T04:25:48;15.90;99.90
7572;DHT22;3827;49.928;8.548;2022-10-18T04:28:15;15.90;99.90
7572;DHT22;3827;49.928;8.548;2022-10-18T04:30:43;15.90;99.90
7572;DHT22;3827;49.928;8.548;2022-10-18T04:33:14;15.90;99.90
7572;DHT22;3827;49.928;8.548;2022-10-18T04:35:42;15.90;99.90
7572;DHT22;3827;49.928;8.548;2022-10-18T04:38:09;15.90;99.90
7572;DHT22;3827;49.928;8.548;2022-10-18T04:40:36;15.90;99.90
7572;DHT22;3827;49.928;8.548;2022-10-18T04:43:03;15.90;99.90
7572;DHT22;3827;49.928;8.548;2022-10-18T04:45:30;16.00;99.90
7572;DHT22;3827;49.928;8.548;2022-10-18T04:47:56;15.90;99.90
7572;DHT22;3827;49.928;8.548;2022-10-18T04:50:23;15.90;99.90
7572;DHT22;3827;49.928;8.548;2022-10-18T04:52:51;15.90;99.90
7572;DHT22;3827;49.928;8.548;2022-10-18T04:55:19;16.00;99.90
7572;DHT22;3827;49.928;8.548;2022-10-18T04:57:46;16.10;99.90
7572;DHT22;3827;49.928;8.548;2022-10-18T05:00:13;15.90;99.90
7572;DHT22;3827;49.928;8.548;2022-10-18T05:02:40;15.90;99.90
7572;DHT22;3827;49.928;8.548;2022-10-18T05:05:07;15.90;99.90
7572;DHT22;3827;49.928;8.548;2022-10-18T05:07:34;15.90;99.90
7572;DHT22;3827;49.928;8.548;2022-10-18T05:10:03;15.90;99.90
7572;DHT22;3827;49.928;8.548;2022-10-18T05:12:30;15.90;99.90
7572;DHT22;3827;49.928;8.548;2022-10-18T05:14:56;15.90;99.90
7572;DHT22;3827;49.928;8.548;2022-10-18T05:17:23;15.90;99.90
7572;DHT22;3827;49.928;8.548;2022-10-18T05:19:50;15.90;99.90
7572;DHT22;3827;49.928;8.548;2022-10-18T05:22:17;15.90;99.90
7572;DHT22;3827;49.928;8.548;2022-10-18T05:24:44;15.90;99.90
7572;DHT22;3827;49.928;8.548;2022-10-18T05:27:12;15.90;99.90
7572;DHT22;3827;49.928;8.548;2022-10-18T05:29:39;15.90;99.90
7572;DHT22;3827;49.928;8.548;2022-10-18T05:32:05;15.80;99.90
7572;DHT22;3827;49.928;8.548;2022-10-18T05:34:32;15.80;99.90
7572;DHT22;3827;49.928;8.548;2022-10-18T05:36:59;15.80;99.90
7572;DHT22;3827;49.928;8.548;2022-10-18T05:39:26;16.10;99.90
7572;DHT22;3827;49.928;8.548;2022-10-18T05:41:53;15.80;99.90
7572;DHT22;3827;49.928;8.548;2022-10-18T05:44:21;15.80;99.90
7572;DHT22;3827;49.928;8.548;2022-10-18T05:46:48;15.80;99.90
7572;DHT22;3827;49.928;8.548;2022-10-18T05:49:15;15.80;99.90
7572;DHT22;3827;49.928;8.548;2022-10-18T05:51:41;15.80;99.90
7572;DHT22;3827;49.928;8.548;2022-10-18T05:54:10;15.80;99.90
7572;DHT22;3827;49.928;8.548;2022-10-18T05:56:37;15.80;99.90
7572;DHT22;3827;49.928;8.548;2022-10-18T05:59:04;15.90;99.90
7572;DHT22;3827;49.928;8.548;2022-10-18T06:01:36;15.80;99.90
7572;DHT22;3827;49.928;8.548;2022-10-18T06:04:03;15.80;99.90
7572;DHT22;3827;49.928;8.548;2022-10-18T06:06:30;15.80;99.90
7572;DHT22;3827;49.928;8.548;2022-10-18T06:08:57;15.80;99.90
7572;DHT22;3827;49.928;8.548;2022-10-18T06:11:23;15.70;99.90
7572;DHT22;3827;49.928;8.548;2022-10-18T06:13:51;15.70;99.90
7572;DHT22;3827;49.928;8.548;2022-10-18T06:16:19;15.70;99.90
7572;DHT22;3827;49.928;8.548;2022-10-18T06:18:48;15.70;99.90
7572;DHT22;3827;49.928;8.548;2022-10-18T06:21:16;15.70;99.90
7572;DHT22;3827;49.928;8.548;2022-10-18T06:23:46;15.70;99.90
7572;DHT22;3827;49.928;8.548;2022-10-18T06:26:13;15.70;99.90
7572;DHT22;3827;49.928;8.548;2022-10-18T06:28:40;15.70;99.90
7572;DHT22;3827;49.928;8.548;2022-10-18T06:31:07;15.70;99.90
7572;DHT22;3827;49.928;8.548;2022-10-18T06:33:35;15.70;99.90
7572;DHT22;3827;49.928;8.548;2022-10-18T06:36:05;15.70;99.90
7572;DHT22;3827;49.928;8.548;2022-10-18T06:38:33;15.70;99.90
7572;DHT22;3827;49.928;8.548;2022-10-18T06:41:00;15.80;99.90
7572;DHT22;3827;49.928;8.548;2022-10-18T06:43:27;15.70;99.90
7572;DHT22;3827;49.928;8.548;2022-10-18T06:45:54;15.70;99.90
7572;DHT22;3827;49.928;8.548;2022-10-18T06:48:23;15.70;99.90
7572;DHT22;3827;49.928;8.548;2022-10-18T06:50:51;15.70;99.90
7572;DHT22;3827;49.928;8.548;2022-10-18T06:53:19;15.70;99.90
7572;DHT22;3827;49.928;8.548;2022-10-18T06:55:46;15.80;99.90
7572;DHT22;3827;49.928;8.548;2022-10-18T06:58:13;15.80;99.90
7572;DHT22;3827;49.928;8.548;2022-10-18T07:00:39;15.80;99.90
7572;DHT22;3827;49.928;8.548;2022-10-18T07:03:06;15.80;99.90
7572;DHT22;3827;49.928;8.548;2022-10-18T07:05:33;15.90;99.90
7572;DHT22;3827;49.928;8.548;2022-10-18T07:08:00;16.00;99.90
7572;DHT22;3827;49.928;8.548;2022-10-18T07:10:28;16.00;99.90
7572;DHT22;3827;49.928;8.548;2022-10-18T07:12:55;16.00;99.90
7572;DHT22;3827;49.928;8.548;2022-10-18T07:15:22;16.10;99.90
7572;DHT22;3827;49.928;8.548;2022-10-18T07:17:49;16.20;99.90
7572;DHT22;3827;49.928;8.548;2022-10-18T07:20:16;16.20;99.90
7572;DHT22;3827;49.928;8.548;2022-10-18T07:22:43;16.20;99.90
7572;DHT22;3827;49.928;8.548;2022-10-18T07:25:10;16.20;99.90
7572;DHT22;3827;49.928;8.548;2022-10-18T07:27:40;16.20;99.90
7572;DHT22;3827;49.928;8.548;2022-10-18T07:30:09;16.10;99.90
7572;DHT22;3827;49.928;8.548;2022-10-18T07:32:36;16.20;99.90
7572;DHT22;3827;49.928;8.548;2022-10-18T07:35:03;16.20;99.90
7572;DHT22;3827;49.928;8.548;2022-10-18T07:37:30;16.20;99.90
7572;DHT22;3827;49.928;8.548;2022-10-18T07:39:57;16.20;99.90
7572;DHT22;3827;49.928;8.548;2022-10-18T07:42:24;16.30;99.90
7572;DHT22;3827;49.928;8.548;2022-10-18T07:44:52;16.30;99.90
7572;DHT22;3827;49.928;8.548;2022-10-18T07:47:19;16.30;99.90
7572;DHT22;3827;49.928;8.548;2022-10-18T07:49:46;16.40;99.90
7572;DHT22;3827;49.928;8.548;2022-10-18T07:52:13;16.40;99.90
7572;DHT22;3827;49.928;8.548;2022-10-18T07:54:40;16.50;99.90
7572;DHT22;3827;49.928;8.548;2022-10-18T07:57:06;16.50;99.90
7572;DHT22;3827;49.928;8.548;2022-10-18T07:59:33;16.50;99.90
7572;DHT22;3827;49.928;8.548;2022-10-18T08:02:01;16.60;99.90
7572;DHT22;3827;49.928;8.548;2022-10-18T08:04:28;16.70;99.90
7572;DHT22;3827;49.928;8.548;2022-10-18T08:06:55;16.70;99.90
7572;DHT22;3827;49.928;8.548;2022-10-18T08:09:22;16.70;99.90
7572;DHT22;3827;49.928;8.548;2022-10-18T08:11:49;16.70;99.90
7572;DHT22;3827;49.928;8.548;2022-10-18T08:14:15;16.70;99.90
7572;DHT22;3827;49.928;8.548;2022-10-18T08:16:42;16.80;99.90
7572;DHT22;3827;49.928;8.548;2022-10-18T08:19:10;17.10;99.90
7572;DHT22;3827;49.928;8.548;2022-10-18T08:21:37;17.20;99.90
7572;DHT22;3827;49.928;8.548;2022-10-18T08:24:04;17.40;99.90
7572;DHT22;3827;49.928;8.548;2022-10-18T08:26:31;17.60;99.90
7572;DHT22;3827;49.928;8.548;2022-10-18T08:28:58;17.80;99.90
7572;DHT22;3827;49.928;8.548;2022-10-18T08:31:25;18.00;99.90
7572;DHT22;3827;49.928;8.548;2022-10-18T08:33:53;17.70;99.90
7572;DHT22;3827;49.928;8.548;2022-10-18T08:36:22;17.60;99.90
7572;DHT22;3827;49.928;8.548;2022-10-18T08:38:49;17.40;99.90
7572;DHT22;3827;49.928;8.548;2022-10-18T08:41:27;17.40;99.90
7572;DHT22;3827;49.928;8.548;2022-10-18T08:44:05;17.50;99.90
7572;DHT22;3827;49.928;8.548;2022-10-18T08:46:34;17.70;99.90
7572;DHT22;3827;49.928;8.548;2022-10-18T08:49:03;17.60;99.90
7572;DHT22;3827;49.928;8.548;2022-10-18T08:51:37;17.60;99.90
7572;DHT22;3827;49.928;8.548;2022-10-18T08:54:09;17.60;99.90
7572;DHT22;3827;49.928;8.548;2022-10-18T08:56:37;17.70;99.90
7572;DHT22;3827;49.928;8.548;2022-10-18T08:59:07;18.00;99.90
7572;DHT22;3827;49.928;8.548;2022-10-18T09:01:40;17.90;99.90
7572;DHT22;3827;49.928;8.548;2022-10-18T09:04:28;17.70;99.90
7572;DHT22;3827;49.928;8.548;2022-10-18T09:07:16;17.60;99.90
7572;DHT22;3827;49.928;8.548;2022-10-18T09:09:47;17.60;99.90
7572;DHT22;3827;49.928;8.548;2022-10-18T09:12:38;17.50;99.90
7572;DHT22;3827;49.928;8.548;2022-10-18T09:15:14;17.50;99.90
7572;DHT22;3827;49.928;8.548;2022-10-18T09:18:01;17.30;99.90
7572;DHT22;3827;49.928;8.548;2022-10-18T09:20:39;17.40;99.90
7572;DHT22;3827;49.928;8.548;2022-10-18T09:23:17;17.30;99.90
7572;DHT22;3827;49.928;8.548;2022-10-18T09:25:46;17.20;99.90
7572;DHT22;3827;49.928;8.548;2022-10-18T09:28:15;17.20;99.90
7572;DHT22;3827;49.928;8.548;2022-10-18T09:30:51;17.20;99.90
7572;DHT22;3827;49.928;8.548;2022-10-18T09:33:38;17.30;99.90
7572;DHT22;3827;49.928;8.548;2022-10-18T09:36:10;17.50;99.90
7572;DHT22;3827;49.928;8.548;2022-10-18T09:38:43;17.60;99.90
7572;DHT22;3827;49.928;8.548;2022-10-18T09:41:15;17.70;99.90
7572;DHT22;3827;49.928;8.548;2022-10-18T09:43:51;18.00;99.90
7572;DHT22;3827;49.928;8.548;2022-10-18T09:46:22;17.90;99.90
7572;DHT22;3827;49.928;8.548;2022-10-18T09:48:53;18.10;99.90
7572;DHT22;3827;49.928;8.548;2022-10-18T09:51:23;18.00;99.90
7572;DHT22;3827;49.928;8.548;2022-10-18T09:54:14;17.90;99.90
7572;DHT22;3827;49.928;8.548;2022-10-18T09:56:47;17.70;99.90
7572;DHT22;3827;49.928;8.548;2022-10-18T09:59:36;17.60;99.90
7572;DHT22;3827;49.928;8.548;2022-10-18T10:02:04;17.80;99.90
7572;DHT22;3827;49.928;8.548;2022-10-18T10:04:31;18.00;99.90
7572;DHT22;3827;49.928;8.548;2022-10-18T10:07:00;18.00;99.90
7572;DHT22;3827;49.928;8.548;2022-10-18T10:09:30;18.20;99.90
7572;DHT22;3827;49.928;8.548;2022-10-18T10:11:57;18.60;99.90
7572;DHT22;3827;49.928;8.548;2022-10-18T10:14:26;19.00;99.90
7572;DHT22;3827;49.928;8.548;2022-10-18T10:16:56;19.50;99.90
7572;DHT22;3827;49.928;8.548;2022-10-18T10:19:27;19.30;99.90
7572;DHT22;3827;49.928;8.548;2022-10-18T10:21:59;19.20;99.90
7572;DHT22;3827;49.928;8.548;2022-10-18T10:24:44;19.20;99.90
7572;DHT22;3827;49.928;8.548;2022-10-18T10:27:18;19.40;99.90
7572;DHT22;3827;49.928;8.548;2022-10-18T10:29:52;19.80;99.90
7572;DHT22;3827;49.928;8.548;2022-10-18T10:32:22;19.60;99.90
7572;DHT22;3827;49.928;8.548;2022-10-18T10:34:50;19.40;99.90
7572;DHT22;3827;49.928;8.548;2022-10-18T10:37:31;19.40;99.90
7572;DHT22;3827;49.928;8.548;2022-10-18T10:40:18;19.20;99.90
7572;DHT22;3827;49.928;8.548;2022-10-18T10:45:38;19.10;99.90
7572;DHT22;3827;49.928;8.548;2022-10-18T10:48:13;18.90;99.90
7572;DHT22;3827;49.928;8.548;2022-10-18T10:50:50;19.00;99.90
7572;DHT22;3827;49.928;8.548;2022-10-18T10:53:40;19.10;99.90
7572;DHT22;3827;49.928;8.548;2022-10-18T10:56:17;19.00;99.90
7572;DHT22;3827;49.928;8.548;2022-10-18T10:58:46;19.00;99.90
7572;DHT22;3827;49.928;8.548;2022-10-18T11:01:29;18.90;99.90
7572;DHT22;3827;49.928;8.548;2022-10-18T11:03:58;19.20;99.90
7572;DHT22;3827;49.928;8.548;2022-10-18T11:06:32;19.10;99.90
7572;DHT22;3827;49.928;8.548;2022-10-18T11:09:05;19.00;99.90
7572;DHT22;3827;49.928;8.548;2022-10-18T11:11:41;19.10;99.90
7572;DHT22;3827;49.928;8.548;2022-10-18T11:14:17;19.00;99.90
7572;DHT22;3827;49.928;8.548;2022-10-18T11:16:52;19.10;99.90
7572;DHT22;3827;49.928;8.548;2022-10-18T11:19:39;18.80;99.90
7572;DHT22;3827;49.928;8.548;2022-10-18T11:22:11;18.70;99.90
7572;DHT22;3827;49.928;8.548;2022-10-18T11:24:40;18.80;99.90
7572;DHT22;3827;49.928;8.548;2022-10-18T11:27:14;19.10;99.90
7572;DHT22;3827;49.928;8.548;2022-10-18T11:29:54;19.10;99.90
7572;DHT22;3827;49.928;8.548;2022-10-18T11:32:32;19.20;99.90
7572;DHT22;3827;49.928;8.548;2022-10-18T11:35:18;19.20;99.90
7572;DHT22;3827;49.928;8.548;2022-10-18T11:38:04;19.20;99.90
7572;DHT22;3827;49.928;8.548;2022-10-18T11:40:47;19.10;99.90
7572;DHT22;3827;49.928;8.548;2022-10-18T11:43:22;19.40;99.90
7572;DHT22;3827;49.928;8.548;2022-10-18T11:45:54;19.40;99.90
7572;DHT22;3827;49.928;8.548;2022-10-18T11:48:45;19.40;99.90
7572;DHT22;3827;49.928;8.548;2022-10-18T11:51:19;19.70;99.90
7572;DHT22;3827;49.928;8.548;2022-10-18T11:54:00;19.90;99.90
7572;DHT22;3827;49.928;8.548;2022-10-18T11:56:37;20.60;99.90
7572;DHT22;3827;49.928;8.548;2022-10-18T11:59:19;20.30;99.90
7572;DHT22;3827;49.928;8.548;2022-10-18T12:01:52;20.30;99.90
7572;DHT22;3827;49.928;8.548;2022-10-18T12:04:25;20.40;99.90
7572;DHT22;3827;49.928;8.548;2022-10-18T12:06:57;20.50;99.90
7572;DHT22;3827;49.928;8.548;2022-10-18T12:09:31;20.70;99.90
7572;DHT22;3827;49.928;8.548;2022-10-18T12:12:02;20.80;99.90
7572;DHT22;3827;49.928;8.548;2022-10-18T12:14:35;21.00;99.90
7572;DHT22;3827;49.928;8.548;2022-10-18T12:17:09;20.90;99.90
7572;DHT22;3827;49.928;8.548;2022-10-18T12:19:38;20.80;99.90
7572;DHT22;3827;49.928;8.548;2022-10-18T12:22:13;21.10;99.90
7572;DHT22;3827;49.928;8.548;2022-10-18T12:24:41;21.40;99.90
7572;DHT22;3827;49.928;8.548;2022-10-18T12:27:12;21.30;99.90
7572;DHT22;3827;49.928;8.548;2022-10-18T12:29:46;20.50;99.90
7572;DHT22;3827;49.928;8.548;2022-10-18T12:32:17;20.90;99.90
7572;DHT22;3827;49.928;8.548;2022-10-18T12:34:49;21.10;99.90
7572;DHT22;3827;49.928;8.548;2022-10-18T12:37:57;20.70;99.90
7572;DHT22;3827;49.928;8.548;2022-10-18T12:40:35;20.80;99.90
7572;DHT22;3827;49.928;8.548;2022-10-18T12:43:07;21.20;99.90
7572;DHT22;3827;49.928;8.548;2022-10-18T12:45:48;21.50;99.90
7572;DHT22;3827;49.928;8.548;2022-10-18T12:48:33;21.90;99.90
7572;DHT22;3827;49.928;8.548;2022-10-18T12:51:05;21.40;99.90
7572;DHT22;3827;49.928;8.548;2022-10-18T12:53:33;21.40;99.90
7572;DHT22;3827;49.928;8.548;2022-10-18T12:56:33;20.90;99.90
7572;DHT22;3827;49.928;8.548;2022-10-18T13:02:27;21.10;99.90
7572;DHT22;3827;49.928;8.548;2022-10-18T13:04:54;20.70;99.90
7572;DHT22;3827;49.928;8.548;2022-10-18T13:07:34;20.70;99.90
7572;DHT22;3827;49.928;8.548;2022-10-18T13:10:35;21.00;99.90
7572;DHT22;3827;49.928;8.548;2022-10-18T13:13:27;21.30;99.90
7572;DHT22;3827;49.928;8.548;2022-10-18T13:16:01;21.50;99.90
7572;DHT22;3827;49.928;8.548;2022-10-18T13:18:38;21.60;99.90
7572;DHT22;3827;49.928;8.548;2022-10-18T13:21:14;21.50;99.90
7572;DHT22;3827;49.928;8.548;2022-10-18T13:26:43;21.00;99.90
7572;DHT22;3827;49.928;8.548;2022-10-18T13:29:43;21.00;99.90
7572;DHT22;3827;49.928;8.548;2022-10-18T13:32:23;20.90;99.90
7572;DHT22;3827;49.928;8.548;2022-10-18T13:34:54;21.00;99.90
7572;DHT22;3827;49.928;8.548;2022-10-18T13:37:22;20.90;99.90
7572;DHT22;3827;49.928;8.548;2022-10-18T13:39:51;20.70;99.90
7572;DHT22;3827;49.928;8.548;2022-10-18T13:42:30;20.50;99.90
7572;DHT22;3827;49.928;8.548;2022-10-18T13:45:51;20.40;99.90
7572;DHT22;3827;49.928;8.548;2022-10-18T13:48:46;20.50;99.90
7572;DHT22;3827;49.928;8.548;2022-10-18T13:51:39;20.40;99.90
7572;DHT22;3827;49.928;8.548;2022-10-18T13:54:21;20.30;99.90
7572;DHT22;3827;49.928;8.548;2022-10-18T13:57:04;20.40;99.90
7572;DHT22;3827;49.928;8.548;2022-10-18T14:00:03;20.30;99.90
7572;DHT22;3827;49.928;8.548;2022-10-18T14:02:39;20.10;99.90
7572;DHT22;3827;49.928;8.548;2022-10-18T14:05:19;20.00;99.90
7572;DHT22;3827;49.928;8.548;2022-10-18T14:07:51;19.80;99.90
7572;DHT22;3827;49.928;8.548;2022-10-18T14:10:28;19.80;99.90
7572;DHT22;3827;49.928;8.548;2022-10-18T14:13:01;19.80;99.90
7572;DHT22;3827;49.928;8.548;2022-10-18T14:15:33;19.90;99.90
7572;DHT22;3827;49.928;8.548;2022-10-18T14:18:06;20.10;99.90
7572;DHT22;3827;49.928;8.548;2022-10-18T14:20:40;20.30;99.90
7572;DHT22;3827;49.928;8.548;2022-10-18T14:23:14;20.50;99.90
7572;DHT22;3827;49.928;8.548;2022-10-18T14:25:42;20.90;99.90
7572;DHT22;3827;49.928;8.548;2022-10-18T14:28:12;21.10;99.90
7572;DHT22;3827;49.928;8.548;2022-10-18T14:30:53;21.10;99.90
7572;DHT22;3827;49.928;8.548;2022-10-18T14:33:29;21.00;99.90
7572;DHT22;3827;49.928;8.548;2022-10-18T14:36:00;21.00;99.90
7572;DHT22;3827;49.928;8.548;2022-10-18T14:38:29;20.70;99.90
7572;DHT22;3827;49.928;8.548;2022-10-18T14:41:04;20.70;99.90
7572;DHT22;3827;49.928;8.548;2022-10-18T14:43:31;20.80;99.90
7572;DHT22;3827;49.928;8.548;2022-10-18T14:46:08;20.70;99.90
7572;DHT22;3827;49.928;8.548;2022-10-18T14:48:35;20.80;99.90
7572;DHT22;3827;49.928;8.548;2022-10-18T14:51:09;20.70;99.90
7572;DHT22;3827;49.928;8.548;2022-10-18T14:53:40;20.60;99.90
7572;DHT22;3827;49.928;8.548;2022-10-18T14:56:20;20.30;99.90
7572;DHT22;3827;49.928;8.548;2022-10-18T14:58:48;20.10;99.90
7572;DHT22;3827;49.928;8.548;2022-10-18T15:01:16;20.10;99.90
7572;DHT22;3827;49.928;8.548;2022-10-18T15:03:43;20.00;99.90
7572;DHT22;3827;49.928;8.548;2022-10-18T15:06:15;20.10;99.90
7572;DHT22;3827;49.928;8.548;2022-10-18T15:08:44;20.00;99.90
7572;DHT22;3827;49.928;8.548;2022-10-18T15:11:13;19.70;99.90
7572;DHT22;3827;49.928;8.548;2022-10-18T15:13:46;19.60;99.90
7572;DHT22;3827;49.928;8.548;2022-10-18T15:16:15;19.60;99.90
7572;DHT22;3827;49.928;8.548;2022-10-18T15:18:42;19.70;99.90
7572;DHT22;3827;49.928;8.548;2022-10-18T15:21:19;19.50;99.90
7572;DHT22;3827;49.928;8.548;2022-10-18T15:23:48;19.40;99.90
7572;DHT22;3827;49.928;8.548;2022-10-18T15:26:20;19.30;99.90
7572;DHT22;3827;49.928;8.548;2022-10-18T15:28:50;19.20;99.90
7572;DHT22;3827;49.928;8.548;2022-10-18T15:31:23;19.20;99.90
7572;DHT22;3827;49.928;8.548;2022-10-18T15:33:51;19.20;99.90
7572;DHT22;3827;49.928;8.548;2022-10-18T15:36:26;19.10;99.90
7572;DHT22;3827;49.928;8.548;2022-10-18T15:39:03;19.10;99.90
7572;DHT22;3827;49.928;8.548;2022-10-18T15:41:39;19.10;99.90
7572;DHT22;3827;49.928;8.548;2022-10-18T15:44:16;19.10;99.90
7572;DHT22;3827;49.928;8.548;2022-10-18T15:46:43;19.10;99.90
7572;DHT22;3827;49.928;8.548;2022-10-18T15:52:30;19.00;99.90
7572;DHT22;3827;49.928;8.548;2022-10-18T15:54:59;19.00;99.90
7572;DHT22;3827;49.928;8.548;2022-10-18T15:57:29;18.90;99.90
7572;DHT22;3827;49.928;8.548;2022-10-18T16:00:00;18.80;99.90
7572;DHT22;3827;49.928;8.548;2022-10-18T16:02:29;18.80;99.90
7572;DHT22;3827;49.928;8.548;2022-10-18T16:04:57;18.80;99.90
7572;DHT22;3827;49.928;8.548;2022-10-18T16:07:25;18.70;99.90
7572;DHT22;3827;49.928;8.548;2022-10-18T16:09:51;18.70;99.90
7572;DHT22;3827;49.928;8.548;2022-10-18T16:12:20;18.60;99.90
7572;DHT22;3827;49.928;8.548;2022-10-18T16:14:46;18.60;99.90
7572;DHT22;3827;49.928;8.548;2022-10-18T16:17:14;18.50;99.90
7572;DHT22;3827;49.928;8.548;2022-10-18T16:19:42;18.50;99.90
7572;DHT22;3827;49.928;8.548;2022-10-18T16:22:11;18.40;99.90
7572;DHT22;3827;49.928;8.548;2022-10-18T16:24:38;18.30;99.90
7572;DHT22;3827;49.928;8.548;2022-10-18T16:27:05;18.20;99.90
7572;DHT22;3827;49.928;8.548;2022-10-18T16:29:34;18.20;99.90
7572;DHT22;3827;49.928;8.548;2022-10-18T16:32:01;17.90;99.90
7572;DHT22;3827;49.928;8.548;2022-10-18T16:34:27;17.90;99.90
7572;DHT22;3827;49.928;8.548;2022-10-18T16:36:56;17.60;99.90
7572;DHT22;3827;49.928;8.548;2022-10-18T16:39:24;17.60;99.90
7572;DHT22;3827;49.928;8.548;2022-10-18T16:41:51;17.30;99.90
7572;DHT22;3827;49.928;8.548;2022-10-18T16:44:18;17.20;99.90